sensor_id;sensor_type;location;lat;lon;timestamp;temperature;humidity
8858;DHT22;4465;50.904;4.696;2023-06-04T00:02:10;13.90;81.40
8858;DHT22;4465;50.904;4.696;2023-06-04T00:04:36;13.80;81.50
8858;DHT22;4465;50.904;4.696;2023-06-04T00:07:02;13.80;81.10
8858;DHT22;4465;50.904;4.696;2023-06-04T00:09:30;13.70;82.70
8858;DHT22;4465;50.904;4.696;2023-06-04T00:11:57;13.60;82.90
8858;DHT22;4465;50.904;4.696;2023-06-04T00:14:23;13.60;82.80
8858;DHT22;4465;50.904;4.696;2023-06-04T00:16:49;13.50;83.10
8858;DHT22;4465;50.904;4.696;2023-06-04T00:19:15;13.50;83.20
8858;DHT22;4465;50.904;4.696;2023-06-04T00:21:41;13.40;83.10
8858;DHT22;4465;50.904;4.696;2023-06-04T00:24:07;13.40;83.70
8858;DHT22;4465;50.904;4.696;2023-06-04T00:26:33;13.30;83.70
8858;DHT22;4465;50.904;4.696;2023-06-04T00:29:00;13.30;83.90
8858;DHT22;4465;50.904;4.696;2023-06-04T00:31:26;13.20;83.90
8858;DHT22;4465;50.904;4.696;2023-06-04T00:33:52;13.20;83.50
8858;DHT22;4465;50.904;4.696;2023-06-04T00:36:18;13.20;83.90
8858;DHT22;4465;50.904;4.696;2023-06-04T00:38:44;13.10;84.20
8858;DHT22;4465;50.904;4.696;2023-06-04T00:41:12;13.10;84.40
8858;DHT22;4465;50.904;4.696;2023-06-04T00:43:38;13.10;84.70
8858;DHT22;4465;50.904;4.696;2023-06-04T00:46:06;13.00;84.60
8858;DHT22;4465;50.904;4.696;2023-06-04T00:48:32;13.00;85.00
8858;DHT22;4465;50.904;4.696;2023-06-04T00:50:58;13.00;85.10
8858;DHT22;4465;50.904;4.696;2023-06-04T00:53:25;12.90;85.10
8858;DHT22;4465;50.904;4.696;2023-06-04T00:55:51;12.90;85.90
8858;DHT22;4465;50.904;4.696;2023-06-04T00:58:17;12.80;86.30
8858;DHT22;4465;50.904;4.696;2023-06-04T01:00:44;12.80;86.40
8858;DHT22;4465;50.904;4.696;2023-06-04T01:03:18;12.70;86.20
8858;DHT22;4465;50.904;4.696;2023-06-04T01:06:10;12.80;86.80
8858;DHT22;4465;50.904;4.696;2023-06-04T01:08:39;12.70;86.00
8858;DHT22;4465;50.904;4.696;2023-06-04T01:11:08;12.70;86.20
8858;DHT22;4465;50.904;4.696;2023-06-04T01:13:34;12.60;86.40
8858;DHT22;4465;50.904;4.696;2023-06-04T01:16:00;12.60;85.80
8858;DHT22;4465;50.904;4.696;2023-06-04T01:18:27;12.50;85.80
8858;DHT22;4465;50.904;4.696;2023-06-04T01:20:58;12.50;86.10
8858;DHT22;4465;50.904;4.696;2023-06-04T01:26:09;12.40;86.40
8858;DHT22;4465;50.904;4.696;2023-06-04T01:28:35;12.40;87.10
8858;DHT22;4465;50.904;4.696;2023-06-04T01:31:03;12.40;87.50
8858;DHT22;4465;50.904;4.696;2023-06-04T01:33:33;12.40;87.20
8858;DHT22;4465;50.904;4.696;2023-06-04T01:35:59;12.30;86.90
8858;DHT22;4465;50.904;4.696;2023-06-04T01:38:27;12.30;87.50
8858;DHT22;4465;50.904;4.696;2023-06-04T01:40:53;12.30;87.60
8858;DHT22;4465;50.904;4.696;2023-06-04T01:43:22;12.30;87.90
8858;DHT22;4465;50.904;4.696;2023-06-04T01:45:48;12.20;87.80
8858;DHT22;4465;50.904;4.696;2023-06-04T01:48:14;12.20;88.10
8858;DHT22;4465;50.904;4.696;2023-06-04T01:50:43;12.20;88.70
8858;DHT22;4465;50.904;4.696;2023-06-04T01:53:09;12.20;87.80
8858;DHT22;4465;50.904;4.696;2023-06-04T01:55:34;12.10;88.60
8858;DHT22;4465;50.904;4.696;2023-06-04T01:58:03;12.10;88.60
8858;DHT22;4465;50.904;4.696;2023-06-04T02:00:29;12.10;88.40
8858;DHT22;4465;50.904;4.696;2023-06-04T02:02:55;12.10;87.80
8858;DHT22;4465;50.904;4.696;2023-06-04T02:05:21;12.00;88.30
8858;DHT22;4465;50.904;4.696;2023-06-04T02:07:47;12.00;88.60
8858;DHT22;4465;50.904;4.696;2023-06-04T02:10:15;12.00;87.50
8858;DHT22;4465;50.904;4.696;2023-06-04T02:12:58;12.00;88.10
8858;DHT22;4465;50.904;4.696;2023-06-04T02:15:25;11.90;88.40
8858;DHT22;4465;50.904;4.696;2023-06-04T02:17:57;11.90;88.10
8858;DHT22;4465;50.904;4.696;2023-06-04T02:20:28;11.90;89.10
8858;DHT22;4465;50.904;4.696;2023-06-04T02:22:57;11.90;89.40
8858;DHT22;4465;50.904;4.696;2023-06-04T02:25:25;11.80;89.50
8858;DHT22;4465;50.904;4.696;2023-06-04T02:27:51;11.80;89.80
8858;DHT22;4465;50.904;4.696;2023-06-04T02:30:17;11.80;89.70
8858;DHT22;4465;50.904;4.696;2023-06-04T02:32:45;11.80;89.30
8858;DHT22;4465;50.904;4.696;2023-06-04T02:35:12;11.70;89.30
8858;DHT22;4465;50.904;4.696;2023-06-04T02:37:38;11.70;88.80
8858;DHT22;4465;50.904;4.696;2023-06-04T02:40:04;11.70;89.10
8858;DHT22;4465;50.904;4.696;2023-06-04T02:42:33;11.60;88.80
8858;DHT22;4465;50.904;4.696;2023-06-04T02:44:59;11.60;90.00
8858;DHT22;4465;50.904;4.696;2023-06-04T02:47:25;11.60;90.20
8858;DHT22;4465;50.904;4.696;2023-06-04T02:49:51;11.50;90.20
8858;DHT22;4465;50.904;4.696;2023-06-04T02:52:16;11.50;89.60
8858;DHT22;4465;50.904;4.696;2023-06-04T02:54:42;11.50;89.70
8858;DHT22;4465;50.904;4.696;2023-06-04T02:57:13;11.50;90.20
8858;DHT22;4465;50.904;4.696;2023-06-04T02:59:41;11.50;89.50
8858;DHT22;4465;50.904;4.696;2023-06-04T03:02:07;11.40;90.00
8858;DHT22;4465;50.904;4.696;2023-06-04T03:04:35;11.40;90.20
8858;DHT22;4465;50.904;4.696;2023-06-04T03:07:02;11.40;90.40
8858;DHT22;4465;50.904;4.696;2023-06-04T03:09:29;11.30;90.60
8858;DHT22;4465;50.904;4.696;2023-06-04T03:12:01;11.30;90.50
8858;DHT22;4465;50.904;4.696;2023-06-04T03:14:27;11.30;90.60
8858;DHT22;4465;50.904;4.696;2023-06-04T03:16:59;11.30;90.60
8858;DHT22;4465;50.904;4.696;2023-06-04T03:19:27;11.20;90.50
8858;DHT22;4465;50.904;4.696;2023-06-04T03:21:55;11.20;90.70
8858;DHT22;4465;50.904;4.696;2023-06-04T03:24:22;11.20;90.70
8858;DHT22;4465;50.904;4.696;2023-06-04T03:26:50;11.20;90.60
8858;DHT22;4465;50.904;4.696;2023-06-04T03:29:16;11.20;90.40
8858;DHT22;4465;50.904;4.696;2023-06-04T03:31:44;11.10;90.70
8858;DHT22;4465;50.904;4.696;2023-06-04T03:34:10;11.10;91.20
8858;DHT22;4465;50.904;4.696;2023-06-04T03:36:38;11.10;91.30
8858;DHT22;4465;50.904;4.696;2023-06-04T03:39:04;11.10;90.90
8858;DHT22;4465;50.904;4.696;2023-06-04T03:41:30;11.10;91.00
8858;DHT22;4465;50.904;4.696;2023-06-04T03:43:56;11.10;91.20
8858;DHT22;4465;50.904;4.696;2023-06-04T03:46:22;11.00;91.10
8858;DHT22;4465;50.904;4.696;2023-06-04T03:48:50;11.00;91.00
8858;DHT22;4465;50.904;4.696;2023-06-04T03:51:18;11.00;91.40
8858;DHT22;4465;50.904;4.696;2023-06-04T03:53:44;11.00;91.70
8858;DHT22;4465;50.904;4.696;2023-06-04T03:56:12;11.00;91.90
8858;DHT22;4465;50.904;4.696;2023-06-04T03:58:38;11.00;91.70
8858;DHT22;4465;50.904;4.696;2023-06-04T04:01:04;11.00;91.80
8858;DHT22;4465;50.904;4.696;2023-06-04T04:03:30;11.00;91.60
8858;DHT22;4465;50.904;4.696;2023-06-04T04:06:00;11.00;91.70
8858;DHT22;4465;50.904;4.696;2023-06-04T04:08:28;11.00;92.00
8858;DHT22;4465;50.904;4.696;2023-06-04T04:10:57;11.00;91.80
8858;DHT22;4465;50.904;4.696;2023-06-04T04:13:23;11.00;91.80
8858;DHT22;4465;50.904;4.696;2023-06-04T04:15:49;11.10;91.90
8858;DHT22;4465;50.904;4.696;2023-06-04T04:18:22;11.10;92.10
8858;DHT22;4465;50.904;4.696;2023-06-04T04:20:48;11.10;91.20
8858;DHT22;4465;50.904;4.696;2023-06-04T04:23:18;11.10;91.30
8858;DHT22;4465;50.904;4.696;2023-06-04T04:25:45;11.10;91.70
8858;DHT22;4465;50.904;4.696;2023-06-04T04:28:11;11.20;91.70
8858;DHT22;4465;50.904;4.696;2023-06-04T04:30:37;11.20;91.70
8858;DHT22;4465;50.904;4.696;2023-06-04T04:33:04;11.20;91.80
8858;DHT22;4465;50.904;4.696;2023-06-04T04:35:32;11.30;92.20
8858;DHT22;4465;50.904;4.696;2023-06-04T04:38:02;11.30;92.20
8858;DHT22;4465;50.904;4.696;2023-06-04T04:40:32;11.40;92.40
8858;DHT22;4465;50.904;4.696;2023-06-04T04:42:58;11.50;92.40
8858;DHT22;4465;50.904;4.696;2023-06-04T04:45:26;11.50;92.70
8858;DHT22;4465;50.904;4.696;2023-06-04T04:47:54;11.60;92.70
8858;DHT22;4465;50.904;4.696;2023-06-04T04:50:20;11.70;92.60
8858;DHT22;4465;50.904;4.696;2023-06-04T04:52:46;11.80;92.40
8858;DHT22;4465;50.904;4.696;2023-06-04T04:55:14;11.80;92.90
8858;DHT22;4465;50.904;4.696;2023-06-04T04:57:43;11.90;93.20
8858;DHT22;4465;50.904;4.696;2023-06-04T05:00:09;12.00;93.30
8858;DHT22;4465;50.904;4.696;2023-06-04T05:02:35;12.10;93.50
8858;DHT22;4465;50.904;4.696;2023-06-04T05:05:04;12.20;93.80
8858;DHT22;4465;50.904;4.696;2023-06-04T05:07:30;12.40;94.10
8858;DHT22;4465;50.904;4.696;2023-06-04T05:09:56;12.50;94.10
8858;DHT22;4465;50.904;4.696;2023-06-04T05:12:25;12.60;94.40
8858;DHT22;4465;50.904;4.696;2023-06-04T05:14:51;12.70;94.60
8858;DHT22;4465;50.904;4.696;2023-06-04T05:17:17;12.80;94.80
8858;DHT22;4465;50.904;4.696;2023-06-04T05:19:49;12.90;94.70
8858;DHT22;4465;50.904;4.696;2023-06-04T05:22:15;13.00;94.60
8858;DHT22;4465;50.904;4.696;2023-06-04T05:24:44;13.10;94.60
8858;DHT22;4465;50.904;4.696;2023-06-04T05:27:13;13.20;94.50
8858;DHT22;4465;50.904;4.696;2023-06-04T05:29:39;13.30;95.00
8858;DHT22;4465;50.904;4.696;2023-06-04T05:32:06;13.40;95.10
8858;DHT22;4465;50.904;4.696;2023-06-04T05:34:32;13.50;95.00
8858;DHT22;4465;50.904;4.696;2023-06-04T05:36:58;13.60;94.80
8858;DHT22;4465;50.904;4.696;2023-06-04T05:39:27;13.70;95.00
8858;DHT22;4465;50.904;4.696;2023-06-04T05:41:52;13.90;94.50
8858;DHT22;4465;50.904;4.696;2023-06-04T05:44:18;14.00;95.10
8858;DHT22;4465;50.904;4.696;2023-06-04T05:46:44;14.10;95.20
8858;DHT22;4465;50.904;4.696;2023-06-04T05:49:10;14.20;95.40
8858;DHT22;4465;50.904;4.696;2023-06-04T05:51:38;14.30;95.30
8858;DHT22;4465;50.904;4.696;2023-06-04T05:54:04;14.40;95.80
8858;DHT22;4465;50.904;4.696;2023-06-04T05:56:30;14.50;95.50
8858;DHT22;4465;50.904;4.696;2023-06-04T05:58:56;14.60;95.50
8858;DHT22;4465;50.904;4.696;2023-06-04T06:01:24;14.70;95.40
8858;DHT22;4465;50.904;4.696;2023-06-04T06:03:50;14.80;95.50
8858;DHT22;4465;50.904;4.696;2023-06-04T06:06:18;14.90;95.40
8858;DHT22;4465;50.904;4.696;2023-06-04T06:08:46;15.00;95.40
8858;DHT22;4465;50.904;4.696;2023-06-04T06:11:15;15.20;94.90
8858;DHT22;4465;50.904;4.696;2023-06-04T06:13:41;15.30;95.00
8858;DHT22;4465;50.904;4.696;2023-06-04T06:16:07;15.40;95.20
8858;DHT22;4465;50.904;4.696;2023-06-04T06:18:35;15.50;95.00
8858;DHT22;4465;50.904;4.696;2023-06-04T06:21:01;15.70;94.90
8858;DHT22;4465;50.904;4.696;2023-06-04T06:23:27;15.70;95.00
8858;DHT22;4465;50.904;4.696;2023-06-04T06:25:53;15.80;95.10
8858;DHT22;4465;50.904;4.696;2023-06-04T06:28:21;16.00;95.40
8858;DHT22;4465;50.904;4.696;2023-06-04T06:30:49;16.10;95.40
8858;DHT22;4465;50.904;4.696;2023-06-04T06:33:15;16.30;95.50
8858;DHT22;4465;50.904;4.696;2023-06-04T06:35:41;16.40;95.40
8858;DHT22;4465;50.904;4.696;2023-06-04T06:38:14;16.60;95.00
8858;DHT22;4465;50.904;4.696;2023-06-04T06:40:42;16.70;94.90
8858;DHT22;4465;50.904;4.696;2023-06-04T06:43:11;16.80;95.10
8858;DHT22;4465;50.904;4.696;2023-06-04T06:45:37;17.00;94.40
8858;DHT22;4465;50.904;4.696;2023-06-04T06:48:03;17.10;94.40
8858;DHT22;4465;50.904;4.696;2023-06-04T06:50:29;17.20;94.10
8858;DHT22;4465;50.904;4.696;2023-06-04T06:52:55;17.30;94.00
8858;DHT22;4465;50.904;4.696;2023-06-04T06:55:21;17.30;92.90
8858;DHT22;4465;50.904;4.696;2023-06-04T06:57:47;17.40;93.20
8858;DHT22;4465;50.904;4.696;2023-06-04T07:00:13;17.40;93.40
8858;DHT22;4465;50.904;4.696;2023-06-04T07:02:41;17.60;93.10
8858;DHT22;4465;50.904;4.696;2023-06-04T07:05:07;17.50;92.40
8858;DHT22;4465;50.904;4.696;2023-06-04T07:07:36;17.70;92.90
8858;DHT22;4465;50.904;4.696;2023-06-04T07:10:04;17.80;92.60
8858;DHT22;4465;50.904;4.696;2023-06-04T07:12:30;17.90;92.80
8858;DHT22;4465;50.904;4.696;2023-06-04T07:14:59;18.00;92.70
8858;DHT22;4465;50.904;4.696;2023-06-04T07:17:25;18.20;92.70
8858;DHT22;4465;50.904;4.696;2023-06-04T07:19:50;18.30;92.50
8858;DHT22;4465;50.904;4.696;2023-06-04T07:22:19;18.40;92.20
8858;DHT22;4465;50.904;4.696;2023-06-04T07:24:45;18.50;92.40
8858;DHT22;4465;50.904;4.696;2023-06-04T07:27:12;18.70;92.20
8858;DHT22;4465;50.904;4.696;2023-06-04T07:29:38;18.80;91.90
8858;DHT22;4465;50.904;4.696;2023-06-04T07:32:05;18.90;92.20
8858;DHT22;4465;50.904;4.696;2023-06-04T07:34:31;19.00;91.70
8858;DHT22;4465;50.904;4.696;2023-06-04T07:36:59;19.10;91.60
8858;DHT22;4465;50.904;4.696;2023-06-04T07:39:25;19.20;91.50
8858;DHT22;4465;50.904;4.696;2023-06-04T07:41:51;19.30;91.30
8858;DHT22;4465;50.904;4.696;2023-06-04T07:44:17;19.40;90.80
8858;DHT22;4465;50.904;4.696;2023-06-04T07:46:43;19.50;89.60
8858;DHT22;4465;50.904;4.696;2023-06-04T07:49:09;19.60;89.50
8858;DHT22;4465;50.904;4.696;2023-06-04T07:51:37;19.60;90.30
8858;DHT22;4465;50.904;4.696;2023-06-04T07:54:03;19.80;90.40
8858;DHT22;4465;50.904;4.696;2023-06-04T07:56:31;19.80;89.30
8858;DHT22;4465;50.904;4.696;2023-06-04T07:58:57;19.90;89.40
8858;DHT22;4465;50.904;4.696;2023-06-04T08:01:23;20.00;90.00
8858;DHT22;4465;50.904;4.696;2023-06-04T08:03:49;20.10;90.10
8858;DHT22;4465;50.904;4.696;2023-06-04T08:06:16;20.30;90.30
8858;DHT22;4465;50.904;4.696;2023-06-04T08:08:45;20.40;89.60
8858;DHT22;4465;50.904;4.696;2023-06-04T08:11:14;20.50;89.70
8858;DHT22;4465;50.904;4.696;2023-06-04T08:13:43;20.70;90.20
8858;DHT22;4465;50.904;4.696;2023-06-04T08:16:09;20.90;90.10
8858;DHT22;4465;50.904;4.696;2023-06-04T08:18:41;21.00;88.30
8858;DHT22;4465;50.904;4.696;2023-06-04T08:21:10;21.20;89.30
8858;DHT22;4465;50.904;4.696;2023-06-04T08:23:39;21.50;88.50
8858;DHT22;4465;50.904;4.696;2023-06-04T08:26:06;21.60;87.20
8858;DHT22;4465;50.904;4.696;2023-06-04T08:28:32;21.80;87.60
8858;DHT22;4465;50.904;4.696;2023-06-04T08:30:58;22.00;86.50
8858;DHT22;4465;50.904;4.696;2023-06-04T08:33:26;22.10;85.00
8858;DHT22;4465;50.904;4.696;2023-06-04T08:35:52;22.20;82.70
8858;DHT22;4465;50.904;4.696;2023-06-04T08:38:18;22.30;82.60
8858;DHT22;4465;50.904;4.696;2023-06-04T08:40:44;22.50;83.30
8858;DHT22;4465;50.904;4.696;2023-06-04T08:43:12;22.70;83.50
8858;DHT22;4465;50.904;4.696;2023-06-04T08:45:51;22.80;83.50
8858;DHT22;4465;50.904;4.696;2023-06-04T08:48:18;22.90;81.10
8858;DHT22;4465;50.904;4.696;2023-06-04T08:50:48;23.00;81.20
8858;DHT22;4465;50.904;4.696;2023-06-04T08:53:15;23.00;79.90
8858;DHT22;4465;50.904;4.696;2023-06-04T08:55:42;23.00;81.40
8858;DHT22;4465;50.904;4.696;2023-06-04T08:58:10;23.10;80.40
8858;DHT22;4465;50.904;4.696;2023-06-04T09:00:36;23.10;77.80
8858;DHT22;4465;50.904;4.696;2023-06-04T09:03:04;22.90;78.50
8858;DHT22;4465;50.904;4.696;2023-06-04T09:05:30;22.80;78.50
8858;DHT22;4465;50.904;4.696;2023-06-04T09:08:00;22.80;78.60
8858;DHT22;4465;50.904;4.696;2023-06-04T09:10:29;22.80;79.50
8858;DHT22;4465;50.904;4.696;2023-06-04T09:12:57;22.60;78.10
8858;DHT22;4465;50.904;4.696;2023-06-04T09:15:27;22.50;78.30
8858;DHT22;4465;50.904;4.696;2023-06-04T09:17:52;22.50;80.20
8858;DHT22;4465;50.904;4.696;2023-06-04T09:20:20;22.60;79.40
8858;DHT22;4465;50.904;4.696;2023-06-04T09:22:46;22.50;78.90
8858;DHT22;4465;50.904;4.696;2023-06-04T09:25:22;22.60;77.90
8858;DHT22;4465;50.904;4.696;2023-06-04T09:27:48;22.60;76.60
8858;DHT22;4465;50.904;4.696;2023-06-04T09:30:18;22.60;77.20
8858;DHT22;4465;50.904;4.696;2023-06-04T09:32:44;22.60;77.90
8858;DHT22;4465;50.904;4.696;2023-06-04T09:35:15;22.60;76.60
8858;DHT22;4465;50.904;4.696;2023-06-04T09:37:42;22.80;77.50
8858;DHT22;4465;50.904;4.696;2023-06-04T09:40:09;22.80;77.00
8858;DHT22;4465;50.904;4.696;2023-06-04T09:42:45;22.90;74.60
8858;DHT22;4465;50.904;4.696;2023-06-04T09:45:29;22.90;75.80
8858;DHT22;4465;50.904;4.696;2023-06-04T09:47:56;22.80;75.40
8858;DHT22;4465;50.904;4.696;2023-06-04T09:50:30;22.80;76.90
8858;DHT22;4465;50.904;4.696;2023-06-04T09:52:56;22.90;75.90
8858;DHT22;4465;50.904;4.696;2023-06-04T09:55:22;22.90;76.60
8858;DHT22;4465;50.904;4.696;2023-06-04T09:57:50;22.80;74.90
8858;DHT22;4465;50.904;4.696;2023-06-04T10:00:20;22.70;75.60
8858;DHT22;4465;50.904;4.696;2023-06-04T10:02:58;22.70;76.50
8858;DHT22;4465;50.904;4.696;2023-06-04T10:05:28;22.60;76.20
8858;DHT22;4465;50.904;4.696;2023-06-04T10:07:57;22.50;76.00
8858;DHT22;4465;50.904;4.696;2023-06-04T10:10:26;22.40;74.50
8858;DHT22;4465;50.904;4.696;2023-06-04T10:13:05;22.50;76.40
8858;DHT22;4465;50.904;4.696;2023-06-04T10:15:32;22.50;75.50
8858;DHT22;4465;50.904;4.696;2023-06-04T10:18:01;22.50;74.20
8858;DHT22;4465;50.904;4.696;2023-06-04T10:20:28;22.50;73.20
8858;DHT22;4465;50.904;4.696;2023-06-04T10:22:54;22.30;74.30
8858;DHT22;4465;50.904;4.696;2023-06-04T10:25:21;22.40;74.20
8858;DHT22;4465;50.904;4.696;2023-06-04T10:27:47;22.30;74.10
8858;DHT22;4465;50.904;4.696;2023-06-04T10:30:16;22.30;74.20
8858;DHT22;4465;50.904;4.696;2023-06-04T10:32:46;22.30;74.80
8858;DHT22;4465;50.904;4.696;2023-06-04T10:35:12;22.30;74.30
8858;DHT22;4465;50.904;4.696;2023-06-04T10:37:40;22.30;75.20
8858;DHT22;4465;50.904;4.696;2023-06-04T10:40:06;22.40;75.40
8858;DHT22;4465;50.904;4.696;2023-06-04T10:42:42;22.50;75.70
8858;DHT22;4465;50.904;4.696;2023-06-04T10:45:09;22.60;76.50
8858;DHT22;4465;50.904;4.696;2023-06-04T10:47:35;22.60;75.20
8858;DHT22;4465;50.904;4.696;2023-06-04T10:50:10;22.70;75.80
8858;DHT22;4465;50.904;4.696;2023-06-04T10:52:53;22.80;74.50
8858;DHT22;4465;50.904;4.696;2023-06-04T10:55:24;22.90;74.00
8858;DHT22;4465;50.904;4.696;2023-06-04T11:00:22;23.00;72.90
8858;DHT22;4465;50.904;4.696;2023-06-04T11:02:54;23.20;73.60
8858;DHT22;4465;50.904;4.696;2023-06-04T11:05:34;23.50;73.30
8858;DHT22;4465;50.904;4.696;2023-06-04T11:08:00;23.80;72.00
8858;DHT22;4465;50.904;4.696;2023-06-04T11:10:35;24.00;71.50
8858;DHT22;4465;50.904;4.696;2023-06-04T11:13:02;24.30;70.30
8858;DHT22;4465;50.904;4.696;2023-06-04T11:15:45;24.60;70.20
8858;DHT22;4465;50.904;4.696;2023-06-04T11:18:16;25.10;71.60
8858;DHT22;4465;50.904;4.696;2023-06-04T11:20:47;25.70;72.50
8858;DHT22;4465;50.904;4.696;2023-06-04T11:23:19;26.20;72.90
8858;DHT22;4465;50.904;4.696;2023-06-04T11:25:45;26.90;74.00
8858;DHT22;4465;50.904;4.696;2023-06-04T11:28:17;27.40;66.50
8858;DHT22;4465;50.904;4.696;2023-06-04T11:30:44;27.70;66.00
8858;DHT22;4465;50.904;4.696;2023-06-04T11:33:12;28.20;67.10
8858;DHT22;4465;50.904;4.696;2023-06-04T11:35:42;28.60;66.40
8858;DHT22;4465;50.904;4.696;2023-06-04T11:38:09;29.10;65.60
8858;DHT22;4465;50.904;4.696;2023-06-04T11:40:35;29.60;63.80
8858;DHT22;4465;50.904;4.696;2023-06-04T11:43:02;29.90;63.40
8858;DHT22;4465;50.904;4.696;2023-06-04T11:45:28;30.10;59.60
8858;DHT22;4465;50.904;4.696;2023-06-04T11:47:56;30.40;61.10
8858;DHT22;4465;50.904;4.696;2023-06-04T11:50:26;30.60;60.50
8858;DHT22;4465;50.904;4.696;2023-06-04T11:52:53;30.90;61.50
8858;DHT22;4465;50.904;4.696;2023-06-04T11:55:19;31.30;61.30
8858;DHT22;4465;50.904;4.696;2023-06-04T11:57:50;31.70;62.80
8858;DHT22;4465;50.904;4.696;2023-06-04T12:00:17;32.10;57.50
8858;DHT22;4465;50.904;4.696;2023-06-04T12:05:16;32.70;59.60
8858;DHT22;4465;50.904;4.696;2023-06-04T12:07:47;32.70;53.20
8858;DHT22;4465;50.904;4.696;2023-06-04T12:10:17;32.60;54.80
8858;DHT22;4465;50.904;4.696;2023-06-04T12:12:43;32.70;55.20
8858;DHT22;4465;50.904;4.696;2023-06-04T12:15:18;32.80;56.60
8858;DHT22;4465;50.904;4.696;2023-06-04T12:17:53;32.90;55.40
8858;DHT22;4465;50.904;4.696;2023-06-04T12:20:36;32.90;51.40
8858;DHT22;4465;50.904;4.696;2023-06-04T12:23:04;32.60;52.50
8858;DHT22;4465;50.904;4.696;2023-06-04T12:25:33;32.40;51.80
8858;DHT22;4465;50.904;4.696;2023-06-04T12:27:59;32.40;53.30
8858;DHT22;4465;50.904;4.696;2023-06-04T12:30:38;32.40;52.10
8858;DHT22;4465;50.904;4.696;2023-06-04T12:33:04;32.20;51.30
8858;DHT22;4465;50.904;4.696;2023-06-04T12:35:33;32.10;53.00
8858;DHT22;4465;50.904;4.696;2023-06-04T12:38:05;32.10;52.80
8858;DHT22;4465;50.904;4.696;2023-06-04T12:40:31;32.20;54.10
8858;DHT22;4465;50.904;4.696;2023-06-04T12:42:57;32.10;51.80
8858;DHT22;4465;50.904;4.696;2023-06-04T12:45:23;32.20;53.00
8858;DHT22;4465;50.904;4.696;2023-06-04T12:47:51;32.10;51.90
8858;DHT22;4465;50.904;4.696;2023-06-04T12:50:17;32.10;54.00
8858;DHT22;4465;50.904;4.696;2023-06-04T12:52:45;32.20;52.40
8858;DHT22;4465;50.904;4.696;2023-06-04T12:55:14;32.20;52.00
8858;DHT22;4465;50.904;4.696;2023-06-04T12:57:40;31.90;49.90
8858;DHT22;4465;50.904;4.696;2023-06-04T13:00:06;31.60;49.10
8858;DHT22;4465;50.904;4.696;2023-06-04T13:02:34;31.50;50.80
8858;DHT22;4465;50.904;4.696;2023-06-04T13:05:01;31.40;50.10
8858;DHT22;4465;50.904;4.696;2023-06-04T13:07:27;31.30;50.70
8858;DHT22;4465;50.904;4.696;2023-06-04T13:09:52;31.40;50.90
8858;DHT22;4465;50.904;4.696;2023-06-04T13:12:18;31.20;50.20
8858;DHT22;4465;50.904;4.696;2023-06-04T13:14:44;31.10;50.60
8858;DHT22;4465;50.904;4.696;2023-06-04T13:17:10;30.90;50.50
8858;DHT22;4465;50.904;4.696;2023-06-04T13:19:36;30.90;51.10
8858;DHT22;4465;50.904;4.696;2023-06-04T13:22:02;30.80;51.00
8858;DHT22;4465;50.904;4.696;2023-06-04T13:24:30;30.50;50.80
8858;DHT22;4465;50.904;4.696;2023-06-04T13:26:56;30.10;51.50
8858;DHT22;4465;50.904;4.696;2023-06-04T13:29:23;30.00;53.30
8858;DHT22;4465;50.904;4.696;2023-06-04T13:31:50;29.80;54.00
8858;DHT22;4465;50.904;4.696;2023-06-04T13:34:16;29.60;52.10
8858;DHT22;4465;50.904;4.696;2023-06-04T13:36:41;29.20;50.40
8858;DHT22;4465;50.904;4.696;2023-06-04T13:39:09;28.70;50.80
8858;DHT22;4465;50.904;4.696;2023-06-04T13:41:35;28.40;51.50
8858;DHT22;4465;50.904;4.696;2023-06-04T13:44:02;28.10;51.60
8858;DHT22;4465;50.904;4.696;2023-06-04T13:46:28;27.90;51.80
8858;DHT22;4465;50.904;4.696;2023-06-04T13:48:53;27.70;52.70
8858;DHT22;4465;50.904;4.696;2023-06-04T13:51:22;27.50;52.90
8858;DHT22;4465;50.904;4.696;2023-06-04T13:53:50;27.40;54.30
8858;DHT22;4465;50.904;4.696;2023-06-04T13:56:21;27.30;54.10
8858;DHT22;4465;50.904;4.696;2023-06-04T13:58:47;27.30;54.00
8858;DHT22;4465;50.904;4.696;2023-06-04T14:01:13;27.10;54.00
8858;DHT22;4465;50.904;4.696;2023-06-04T14:03:39;26.80;53.00
8858;DHT22;4465;50.904;4.696;2023-06-04T14:06:05;26.60;53.30
8858;DHT22;4465;50.904;4.696;2023-06-04T14:08:36;26.40;53.70
8858;DHT22;4465;50.904;4.696;2023-06-04T14:11:02;26.30;53.80
8858;DHT22;4465;50.904;4.696;2023-06-04T14:13:28;26.20;53.90
8858;DHT22;4465;50.904;4.696;2023-06-04T14:15:54;26.00;53.70
8858;DHT22;4465;50.904;4.696;2023-06-04T14:18:19;25.90;54.50
8858;DHT22;4465;50.904;4.696;2023-06-04T14:20:45;25.80;55.10
8858;DHT22;4465;50.904;4.696;2023-06-04T14:23:11;25.80;55.60
8858;DHT22;4465;50.904;4.696;2023-06-04T14:25:37;25.60;55.00
8858;DHT22;4465;50.904;4.696;2023-06-04T14:28:03;25.50;54.30
8858;DHT22;4465;50.904;4.696;2023-06-04T14:30:29;25.40;54.70
8858;DHT22;4465;50.904;4.696;2023-06-04T14:32:58;25.30;54.10
8858;DHT22;4465;50.904;4.696;2023-06-04T14:35:24;25.20;54.60
8858;DHT22;4465;50.904;4.696;2023-06-04T14:37:49;25.20;55.20
8858;DHT22;4465;50.904;4.696;2023-06-04T14:40:15;25.10;55.00
8858;DHT22;4465;50.904;4.696;2023-06-04T14:42:41;25.00;53.90
8858;DHT22;4465;50.904;4.696;2023-06-04T14:45:07;24.80;53.90
8858;DHT22;4465;50.904;4.696;2023-06-04T14:47:33;24.80;54.40
8858;DHT22;4465;50.904;4.696;2023-06-04T14:49:59;24.70;55.20
8858;DHT22;4465;50.904;4.696;2023-06-04T14:52:30;24.70;55.20
8858;DHT22;4465;50.904;4.696;2023-06-04T14:54:58;24.70;55.60
8858;DHT22;4465;50.904;4.696;2023-06-04T14:57:26;24.70;56.10
8858;DHT22;4465;50.904;4.696;2023-06-04T14:59:52;24.70;56.20
8858;DHT22;4465;50.904;4.696;2023-06-04T15:02:18;24.70;56.20
8858;DHT22;4465;50.904;4.696;2023-06-04T15:04:49;24.60;55.80
8858;DHT22;4465;50.904;4.696;2023-06-04T15:07:15;24.50;55.10
8858;DHT22;4465;50.904;4.696;2023-06-04T15:09:44;24.40;54.10
8858;DHT22;4465;50.904;4.696;2023-06-04T15:12:10;24.30;55.30
8858;DHT22;4465;50.904;4.696;2023-06-04T15:14:36;24.30;55.10
8858;DHT22;4465;50.904;4.696;2023-06-04T15:17:02;24.20;56.20
8858;DHT22;4465;50.904;4.696;2023-06-04T15:19:29;24.20;55.40
8858;DHT22;4465;50.904;4.696;2023-06-04T15:21:57;24.10;55.20
8858;DHT22;4465;50.904;4.696;2023-06-04T15:24:23;24.00;55.40
8858;DHT22;4465;50.904;4.696;2023-06-04T15:26:49;24.00;55.80
8858;DHT22;4465;50.904;4.696;2023-06-04T15:29:15;23.90;55.80
8858;DHT22;4465;50.904;4.696;2023-06-04T15:31:46;23.90;55.80
8858;DHT22;4465;50.904;4.696;2023-06-04T15:34:15;23.90;56.20
8858;DHT22;4465;50.904;4.696;2023-06-04T15:36:41;23.80;56.00
8858;DHT22;4465;50.904;4.696;2023-06-04T15:39:07;23.80;56.20
8858;DHT22;4465;50.904;4.696;2023-06-04T15:41:33;23.70;56.10
8858;DHT22;4465;50.904;4.696;2023-06-04T15:44:01;23.70;56.10
8858;DHT22;4465;50.904;4.696;2023-06-04T15:46:27;23.70;56.60
8858;DHT22;4465;50.904;4.696;2023-06-04T15:48:53;23.70;57.10
8858;DHT22;4465;50.904;4.696;2023-06-04T15:51:18;23.70;56.70
8858;DHT22;4465;50.904;4.696;2023-06-04T15:53:44;23.70;57.20
8858;DHT22;4465;50.904;4.696;2023-06-04T15:56:11;23.70;56.80
8858;DHT22;4465;50.904;4.696;2023-06-04T15:58:43;23.60;56.40
8858;DHT22;4465;50.904;4.696;2023-06-04T16:01:09;23.60;56.50
8858;DHT22;4465;50.904;4.696;2023-06-04T16:03:35;23.50;56.80
8858;DHT22;4465;50.904;4.696;2023-06-04T16:06:01;23.60;57.10
8858;DHT22;4465;50.904;4.696;2023-06-04T16:08:27;23.50;57.20
8858;DHT22;4465;50.904;4.696;2023-06-04T16:10:53;23.60;58.00
8858;DHT22;4465;50.904;4.696;2023-06-04T16:13:19;23.60;58.70